createdAt,value
2022-10-16T00:01:46.348Z,18.17
2022-10-16T00:04:15.521Z,18.37
2022-10-16T00:06:44.188Z,21.57
2022-10-16T00:09:13.291Z,14.90
2022-10-16T00:11:44.378Z,16.00
2022-10-16T00:14:14.953Z,18.57
2022-10-16T00:16:43.809Z,13.90
2022-10-16T00:19:13.358Z,12.20
2022-10-16T00:21:42.050Z,14.27
2022-10-16T00:24:11.799Z,17.37
2022-10-16T00:26:42.992Z,13.30
2022-10-16T00:29:14.393Z,15.67
2022-10-16T00:31:43.341Z,13.40
2022-10-16T00:34:12.087Z,12.07
2022-10-16T00:36:40.789Z,13.40
2022-10-16T00:39:09.433Z,14.53
2022-10-16T00:41:38.131Z,12.47
2022-10-16T00:44:48.419Z,12.63
2022-10-16T00:47:23.358Z,12.60
2022-10-16T00:49:55.114Z,12.80
2022-10-16T00:52:24.165Z,15.47
2022-10-16T00:54:55.806Z,13.57
2022-10-16T00:57:25.069Z,12.23
2022-10-16T00:59:54.211Z,15.43
2022-10-16T01:02:24.462Z,12.73
2022-10-16T01:04:55.333Z,15.47
2022-10-16T01:07:37.321Z,12.20
2022-10-16T01:10:17.060Z,13.43
2022-10-16T01:12:52.251Z,11.60
2022-10-16T01:15:27.529Z,17.90
2022-10-16T01:18:03.316Z,13.47
2022-10-16T01:20:35.490Z,15.63
2022-10-16T01:23:27.395Z,13.03
2022-10-16T01:26:12.050Z,12.13
2022-10-16T01:28:50.271Z,13.40
2022-10-16T01:31:23.193Z,13.00
2022-10-16T01:33:58.337Z,15.97
2022-10-16T01:36:32.115Z,14.23
2022-10-16T01:39:04.136Z,12.20
2022-10-16T01:41:37.042Z,13.40
2022-10-16T01:44:10.884Z,12.20
2022-10-16T01:46:43.341Z,14.07
2022-10-16T01:49:14.440Z,15.67
2022-10-16T01:51:45.853Z,12.47
2022-10-16T01:54:15.985Z,11.27
2022-10-16T01:56:45.623Z,20.23
2022-10-16T01:59:20.303Z,12.97
2022-10-16T02:01:52.677Z,16.03
2022-10-16T02:04:25.501Z,14.67
2022-10-16T02:06:55.206Z,15.03
2022-10-16T02:09:23.978Z,13.17
2022-10-16T02:11:54.733Z,14.57
2022-10-16T02:14:25.900Z,15.67
2022-10-16T02:16:54.783Z,16.47
2022-10-16T02:19:24.411Z,12.90
2022-10-16T02:21:56.538Z,13.80
2022-10-16T02:24:32.769Z,15.10
2022-10-16T02:27:10.675Z,12.40
2022-10-16T02:29:45.913Z,14.23
2022-10-16T02:32:17.078Z,15.10
2022-10-16T02:34:47.793Z,15.37
2022-10-16T02:37:18.471Z,13.33
2022-10-16T02:39:47.165Z,13.93
2022-10-16T02:42:16.629Z,13.70
2022-10-16T02:44:46.993Z,14.03
2022-10-16T02:47:15.784Z,14.47
2022-10-16T02:49:44.488Z,15.10
2022-10-16T02:52:13.235Z,12.27
2022-10-16T02:54:42.129Z,14.77
2022-10-16T02:57:10.808Z,13.17
2022-10-16T02:59:39.813Z,13.67
2022-10-16T03:02:09.899Z,13.27
2022-10-16T03:04:38.612Z,13.63
2022-10-16T03:07:07.240Z,12.13
2022-10-16T03:09:35.937Z,15.47
2022-10-16T03:12:05.086Z,13.07
2022-10-16T03:14:33.758Z,13.73
2022-10-16T03:17:03.373Z,14.37
2022-10-16T03:19:33.373Z,14.30
2022-10-16T03:22:01.945Z,13.23
2022-10-16T03:24:30.522Z,13.33
2022-10-16T03:26:59.962Z,13.17
2022-10-16T03:29:30.373Z,19.23
2022-10-16T03:31:59.114Z,13.20
2022-10-16T03:34:28.044Z,12.60
2022-10-16T03:36:58.362Z,13.10
2022-10-16T03:39:27.122Z,12.27
2022-10-16T03:41:55.849Z,16.17
2022-10-16T03:44:24.476Z,19.40
2022-10-16T03:46:53.116Z,11.60
2022-10-16T03:49:21.737Z,13.80
2022-10-16T03:51:52.955Z,12.90
2022-10-16T03:54:23.176Z,13.17
2022-10-16T03:56:51.758Z,16.80
2022-10-16T03:59:20.476Z,12.10
2022-10-16T04:01:49.114Z,20.83
2022-10-16T04:04:17.842Z,14.87
2022-10-16T04:06:46.426Z,15.90
2022-10-16T04:09:15.247Z,13.30
2022-10-16T04:11:45.209Z,12.47
2022-10-16T04:14:13.848Z,13.33
2022-10-16T04:16:42.646Z,12.90
2022-10-16T04:19:12.116Z,11.40
2022-10-16T04:21:40.838Z,13.83
2022-10-16T04:24:09.522Z,11.90
2022-10-16T04:26:38.177Z,12.00
2022-10-16T04:29:08.274Z,11.47
2022-10-16T04:31:36.988Z,12.33
2022-10-16T04:34:05.550Z,10.80
2022-10-16T04:36:34.165Z,12.23
2022-10-16T04:39:02.783Z,18.20
2022-10-16T04:41:31.476Z,11.70
2022-10-16T04:44:00.085Z,11.83
2022-10-16T04:46:30.075Z,12.60
2022-10-16T04:48:58.686Z,13.37
2022-10-16T04:51:28.698Z,12.47
2022-10-16T04:53:57.499Z,13.30
2022-10-16T04:56:26.226Z,15.70
2022-10-16T04:58:54.971Z,13.33
2022-10-16T05:01:23.686Z,12.30
2022-10-16T05:03:53.790Z,11.90
2022-10-16T05:06:22.387Z,12.80
2022-10-16T05:08:51.178Z,12.83
2022-10-16T05:11:19.815Z,13.47
2022-10-16T05:13:50.911Z,12.37
2022-10-16T05:16:22.227Z,13.13
2022-10-16T05:18:53.255Z,13.50
2022-10-16T05:21:26.142Z,15.10
2022-10-16T05:23:56.210Z,17.80
2022-10-16T05:26:24.851Z,14.47
2022-10-16T05:28:53.588Z,15.07
2022-10-16T05:31:22.395Z,16.37
2022-10-16T05:33:50.996Z,12.93
2022-10-16T05:36:20.183Z,12.60
2022-10-16T05:38:53.185Z,13.73
2022-10-16T05:41:22.783Z,14.30
2022-10-16T05:43:51.434Z,14.73
2022-10-16T05:46:20.050Z,12.73
2022-10-16T05:48:48.789Z,12.13
2022-10-16T05:51:17.710Z,12.23
2022-10-16T05:53:46.343Z,15.53
2022-10-16T05:56:16.567Z,12.73
2022-10-16T05:58:45.968Z,15.50
2022-10-16T06:01:20.084Z,14.80
2022-10-16T06:03:49.206Z,14.60
2022-10-16T06:06:22.293Z,19.30
2022-10-16T06:08:52.002Z,14.03
2022-10-16T06:11:23.794Z,16.67
2022-10-16T06:13:53.371Z,13.67
2022-10-16T06:16:22.169Z,12.60
2022-10-16T06:18:52.545Z,14.70
2022-10-16T06:21:23.211Z,15.73
2022-10-16T06:23:51.883Z,13.73
2022-10-16T06:26:24.339Z,12.97
2022-10-16T06:28:53.071Z,14.87
2022-10-16T06:31:21.905Z,11.43
2022-10-16T06:33:53.351Z,17.37
2022-10-16T06:36:22.993Z,12.27
2022-10-16T06:38:52.089Z,14.37
2022-10-16T06:41:23.525Z,12.97
2022-10-16T06:43:53.259Z,12.23
2022-10-16T06:46:24.607Z,12.23
2022-10-16T06:48:54.524Z,13.93
2022-10-16T06:51:25.246Z,18.83
2022-10-16T06:54:04.077Z,13.20
2022-10-16T06:56:35.573Z,13.47
2022-10-16T06:59:04.977Z,12.30
2022-10-16T07:01:34.470Z,12.57
2022-10-16T07:04:04.077Z,11.63
2022-10-16T07:06:35.447Z,12.63
2022-10-16T07:09:06.747Z,12.33
2022-10-16T07:11:38.284Z,14.43
2022-10-16T07:14:07.453Z,16.63
2022-10-16T07:16:36.057Z,12.20
2022-10-16T07:19:05.024Z,12.73
2022-10-16T07:21:37.192Z,12.50
2022-10-16T07:24:08.474Z,13.30
2022-10-16T07:26:40.850Z,16.23
2022-10-16T07:29:14.541Z,15.47
2022-10-16T07:31:44.117Z,13.40
2022-10-16T07:34:14.716Z,13.47
2022-10-16T07:36:47.056Z,16.43
2022-10-16T07:39:16.066Z,12.27
2022-10-16T07:41:46.081Z,14.53
2022-10-16T07:44:14.935Z,13.03
2022-10-16T07:46:43.660Z,13.23
2022-10-16T07:49:12.376Z,14.23
2022-10-16T07:51:41.000Z,14.30
2022-10-16T07:54:10.969Z,13.77
2022-10-16T07:56:42.967Z,14.53
2022-10-16T07:59:14.327Z,13.63
2022-10-16T08:01:46.242Z,14.50
2022-10-16T08:04:14.920Z,15.43
2022-10-16T08:06:44.104Z,13.77
2022-10-16T08:09:15.796Z,14.33
2022-10-16T08:11:44.622Z,15.30
2022-10-16T08:14:17.551Z,18.57
2022-10-16T08:16:46.206Z,15.53
2022-10-16T08:19:16.953Z,14.13
2022-10-16T08:21:49.138Z,15.73
2022-10-16T08:24:17.809Z,14.57
2022-10-16T08:26:46.443Z,14.77
2022-10-16T08:29:17.385Z,16.47
2022-10-16T08:31:46.096Z,15.33
2022-10-16T08:34:14.874Z,15.63
2022-10-16T08:36:43.630Z,14.23
2022-10-16T08:39:12.342Z,14.50
2022-10-16T08:42:03.558Z,16.53
2022-10-16T08:44:52.447Z,14.87
2022-10-16T08:47:24.757Z,15.43
2022-10-16T08:49:59.227Z,17.60
2022-10-16T08:52:32.166Z,16.07
2022-10-16T08:55:01.204Z,21.80
2022-10-16T08:57:30.891Z,15.37
2022-10-16T09:00:08.219Z,15.33
2022-10-16T09:02:41.750Z,15.97
2022-10-16T09:05:26.367Z,14.30
2022-10-16T09:08:05.594Z,19.67
2022-10-16T09:10:46.840Z,23.97
2022-10-16T09:13:23.438Z,17.53
2022-10-16T09:16:03.552Z,18.10
2022-10-16T09:18:39.720Z,15.73
2022-10-16T09:21:15.589Z,18.70
2022-10-16T09:23:44.587Z,19.13
2022-10-16T09:26:16.220Z,15.93
2022-10-16T09:28:45.089Z,16.67
2022-10-16T09:31:19.937Z,15.87
2022-10-16T09:33:55.572Z,16.50
2022-10-16T09:36:27.636Z,18.30
2022-10-16T09:39:06.106Z,18.97
2022-10-16T09:41:37.886Z,16.73
2022-10-16T09:44:16.909Z,18.53
2022-10-16T09:46:47.054Z,17.17
2022-10-16T09:49:24.552Z,15.97
2022-10-16T09:52:04.878Z,23.90
2022-10-16T09:54:33.660Z,15.13
2022-10-16T09:57:08.896Z,18.03
2022-10-16T09:59:49.009Z,15.43
2022-10-16T10:02:21.761Z,18.97
2022-10-16T10:04:55.139Z,16.90
2022-10-16T10:07:28.798Z,16.37
2022-10-16T10:09:59.485Z,17.13
2022-10-16T10:12:30.348Z,15.90
2022-10-16T10:15:05.651Z,16.47
2022-10-16T10:17:35.883Z,15.23
2022-10-16T10:20:25.921Z,17.63
2022-10-16T10:22:54.621Z,21.57
2022-10-16T10:25:44.901Z,19.57
2022-10-16T10:28:27.300Z,19.33
2022-10-16T10:31:03.419Z,17.53
2022-10-16T10:33:43.212Z,16.63
2022-10-16T10:36:28.157Z,18.97
2022-10-16T10:39:00.701Z,21.03
2022-10-16T10:42:07.849Z,17.53
2022-10-16T10:45:05.333Z,17.10
2022-10-16T10:47:48.665Z,23.43
2022-10-16T10:50:25.650Z,16.53
2022-10-16T10:53:05.152Z,18.47
2022-10-16T10:55:41.770Z,19.60
2022-10-16T10:58:31.155Z,17.47
2022-10-16T11:01:09.104Z,17.00
2022-10-16T11:04:00.613Z,17.90
2022-10-16T11:06:34.989Z,17.43
2022-10-16T11:09:10.929Z,18.03
2022-10-16T11:11:46.177Z,17.57
2022-10-16T11:14:21.030Z,27.37
2022-10-16T11:16:56.603Z,17.97
2022-10-16T11:19:36.916Z,18.87
2022-10-16T11:22:14.863Z,17.00
2022-10-16T11:24:48.027Z,16.40
2022-10-16T11:27:22.180Z,17.60
2022-10-16T11:29:56.209Z,23.97
2022-10-16T11:32:30.007Z,19.13
2022-10-16T11:35:04.501Z,19.53
2022-10-16T11:37:38.882Z,17.57
2022-10-16T11:40:22.463Z,17.13
2022-10-16T11:42:56.700Z,21.73
2022-10-16T11:45:32.288Z,20.37
2022-10-16T11:48:08.833Z,24.50
2022-10-16T11:50:42.076Z,19.13
2022-10-16T11:53:21.898Z,21.77
2022-10-16T11:55:50.654Z,23.73
2022-10-16T11:58:28.682Z,20.43
2022-10-16T12:01:03.502Z,18.73
2022-10-16T12:03:38.348Z,19.47
2022-10-16T12:06:33.345Z,23.43
2022-10-16T12:09:04.704Z,24.57
2022-10-16T12:11:36.529Z,20.67
2022-10-16T12:14:42.940Z,21.23
2022-10-16T12:17:29.255Z,18.37
2022-10-16T12:20:03.052Z,19.90
2022-10-16T12:22:36.903Z,21.80
2022-10-16T12:25:23.197Z,20.83
2022-10-16T12:27:58.515Z,19.43
2022-10-16T12:30:35.195Z,21.67
2022-10-16T12:33:07.408Z,17.23
2022-10-16T12:35:45.893Z,18.53
2022-10-16T12:38:20.320Z,18.27
2022-10-16T12:41:00.180Z,19.00
2022-10-16T12:43:38.432Z,17.23
2022-10-16T12:46:26.803Z,16.57
2022-10-16T12:49:06.582Z,23.33
2022-10-16T12:51:38.497Z,24.63
2022-10-16T12:54:15.890Z,18.57
2022-10-16T12:56:56.373Z,17.27
2022-10-16T12:59:35.836Z,20.07
2022-10-16T13:02:43.700Z,19.50
2022-10-16T13:05:26.337Z,17.93
2022-10-16T13:08:05.176Z,20.03
2022-10-16T13:10:41.144Z,21.23
2022-10-16T13:13:35.250Z,19.57
2022-10-16T13:16:26.237Z,19.10
2022-10-16T13:19:08.881Z,19.03
2022-10-16T13:21:48.252Z,19.03
2022-10-16T13:24:38.815Z,19.53
2022-10-16T13:27:13.710Z,19.00
2022-10-16T13:29:44.065Z,18.70
2022-10-16T13:32:18.013Z,20.97
2022-10-16T13:34:49.711Z,21.70
2022-10-16T13:37:23.355Z,21.57
2022-10-16T13:39:52.684Z,21.27
2022-10-16T13:42:28.112Z,20.23
2022-10-16T13:44:58.953Z,18.07
2022-10-16T13:47:30.298Z,21.70
2022-10-16T13:50:03.413Z,21.63
2022-10-16T13:52:32.802Z,19.17
2022-10-16T13:55:02.506Z,19.77
2022-10-16T13:57:31.690Z,19.10
2022-10-16T14:00:01.784Z,21.73
2022-10-16T14:02:36.325Z,19.40
2022-10-16T14:05:06.769Z,19.33
2022-10-16T14:07:37.037Z,19.90
2022-10-16T14:10:09.368Z,19.87
2022-10-16T14:12:38.115Z,19.37
2022-10-16T14:15:21.379Z,19.37
2022-10-16T14:17:52.938Z,21.53
2022-10-16T14:20:23.335Z,24.03
2022-10-16T14:23:02.325Z,20.93
2022-10-16T14:25:33.159Z,20.10
2022-10-16T14:28:06.645Z,20.47
2022-10-16T14:30:38.374Z,17.70
2022-10-16T14:33:08.823Z,20.10
2022-10-16T14:35:40.414Z,19.07
2022-10-16T14:38:21.005Z,18.57
2022-10-16T14:40:51.301Z,19.90
2022-10-16T14:43:24.826Z,18.77
2022-10-16T14:45:58.018Z,19.93
2022-10-16T14:48:27.177Z,19.00
2022-10-16T14:50:55.978Z,19.23
2022-10-16T14:53:24.598Z,20.43
2022-10-16T14:55:53.591Z,20.43
2022-10-16T14:58:24.730Z,18.23
2022-10-16T15:00:54.783Z,22.50
2022-10-16T15:03:23.557Z,19.40
2022-10-16T15:05:52.162Z,19.77
2022-10-16T15:08:58.270Z,21.60
2022-10-16T15:11:27.073Z,17.70
2022-10-16T15:13:57.104Z,18.53
2022-10-16T15:16:27.483Z,20.40
2022-10-16T15:18:56.122Z,20.90
2022-10-16T15:21:28.306Z,22.40
2022-10-16T15:23:57.673Z,18.83
2022-10-16T15:26:27.003Z,17.70
2022-10-16T15:28:56.355Z,17.83
2022-10-16T15:31:26.876Z,18.43
2022-10-16T15:33:59.238Z,23.73
2022-10-16T15:36:29.251Z,19.93
2022-10-16T15:38:58.425Z,19.37
2022-10-16T15:41:27.147Z,22.33
2022-10-16T15:43:55.949Z,19.27
2022-10-16T15:46:27.157Z,19.03
2022-10-16T15:48:59.440Z,17.20
2022-10-16T15:51:30.433Z,18.87
2022-10-16T15:54:00.047Z,19.03
2022-10-16T15:56:29.600Z,18.37
2022-10-16T15:58:59.366Z,22.57
2022-10-16T16:01:30.513Z,22.37
2022-10-16T16:03:59.315Z,19.47
2022-10-16T16:06:27.984Z,19.33
2022-10-16T16:08:56.754Z,21.07
2022-10-16T16:11:25.476Z,18.17
2022-10-16T16:13:55.725Z,19.63
2022-10-16T16:16:24.506Z,23.87
2022-10-16T16:18:56.581Z,18.73
2022-10-16T16:21:25.334Z,18.30
2022-10-16T16:23:53.996Z,21.60
2022-10-16T16:26:27.054Z,20.37
2022-10-16T16:28:57.763Z,22.67
2022-10-16T16:31:27.953Z,18.33
2022-10-16T16:33:58.590Z,31.67
2022-10-16T16:36:27.739Z,26.37
2022-10-16T16:38:56.485Z,34.60
2022-10-16T16:41:28.492Z,34.30
2022-10-16T16:43:57.816Z,30.07
2022-10-16T16:46:26.798Z,28.47
2022-10-16T16:48:56.536Z,35.60
2022-10-16T16:51:26.780Z,22.50
2022-10-16T16:53:56.364Z,29.87
2022-10-16T16:56:26.451Z,24.20
2022-10-16T16:58:57.337Z,26.17
2022-10-16T17:01:28.197Z,25.37
2022-10-16T17:03:59.021Z,29.93
2022-10-16T17:06:31.510Z,26.67
2022-10-16T17:09:03.571Z,27.87
2022-10-16T17:11:32.554Z,24.10
2022-10-16T17:14:02.292Z,29.00
2022-10-16T17:16:33.741Z,26.90
2022-10-16T17:19:03.426Z,27.90
2022-10-16T17:21:34.003Z,30.77
2022-10-16T17:24:03.183Z,40.87
2022-10-16T17:26:32.567Z,33.40
2022-10-16T17:29:03.257Z,39.90
2022-10-16T17:31:33.843Z,33.67
2022-10-16T17:34:04.235Z,40.00
2022-10-16T17:36:36.926Z,26.37
2022-10-16T17:39:08.428Z,26.53
2022-10-16T17:41:38.353Z,28.93
2022-10-16T17:44:07.855Z,19.23
2022-10-16T17:46:40.277Z,25.03
2022-10-16T17:49:13.974Z,25.40
2022-10-16T17:51:44.716Z,32.30
2022-10-16T17:54:15.594Z,27.77
2022-10-16T17:56:44.426Z,26.93
2022-10-16T17:59:14.209Z,36.77
2022-10-16T18:01:46.320Z,28.23
2022-10-16T18:04:19.132Z,33.90
2022-10-16T18:06:49.823Z,32.37
2022-10-16T18:09:20.937Z,24.47
2022-10-16T18:11:52.562Z,27.87
2022-10-16T18:14:21.433Z,29.57
2022-10-16T18:19:26.036Z,31.47
2022-10-16T18:21:56.676Z,26.33
2022-10-16T18:24:26.281Z,30.57
2022-10-16T18:26:57.666Z,34.70
2022-10-16T18:29:27.723Z,34.10
2022-10-16T18:31:57.219Z,27.90
2022-10-16T18:34:27.304Z,26.17
2022-10-16T18:36:57.751Z,31.13
2022-10-16T18:39:26.399Z,29.17
2022-10-16T18:41:59.993Z,29.73
2022-10-16T18:44:31.290Z,29.83
2022-10-16T18:47:00.166Z,26.33
2022-10-16T18:49:29.703Z,32.97
2022-10-16T18:52:02.892Z,26.63
2022-10-16T18:54:32.238Z,29.27
2022-10-16T18:57:01.224Z,29.67
2022-10-16T18:59:30.194Z,22.43
2022-10-16T19:01:59.077Z,24.63
2022-10-16T19:04:28.445Z,25.17
2022-10-16T19:06:57.336Z,29.07
2022-10-16T19:09:27.543Z,28.07
2022-10-16T19:11:57.571Z,24.07
2022-10-16T19:14:26.268Z,21.87
2022-10-16T19:16:55.006Z,26.10
2022-10-16T19:19:24.022Z,24.23
2022-10-16T19:22:01.397Z,27.97
2022-10-16T19:24:31.463Z,25.17
2022-10-16T19:27:02.553Z,27.97
2022-10-16T19:29:32.006Z,24.83
2022-10-16T19:32:05.059Z,22.67
2022-10-16T19:34:36.129Z,27.70
2022-10-16T19:37:04.810Z,26.30
2022-10-16T19:39:35.184Z,22.73
2022-10-16T19:42:04.089Z,25.63
2022-10-16T19:44:34.007Z,27.63
2022-10-16T19:47:02.930Z,28.10
2022-10-16T19:49:31.787Z,23.73
2022-10-16T19:52:00.675Z,28.00
2022-10-16T19:54:29.317Z,26.10
2022-10-16T19:57:00.247Z,35.33
2022-10-16T19:59:29.265Z,31.13
2022-10-16T20:01:58.312Z,31.47
2022-10-16T20:04:26.977Z,31.93
2022-10-16T20:09:24.438Z,28.47
2022-10-16T20:11:53.042Z,25.83
2022-10-16T20:14:23.153Z,25.17
2022-10-16T20:16:53.317Z,26.13
2022-10-16T20:19:22.171Z,29.47
2022-10-16T20:21:50.903Z,28.33
2022-10-16T20:24:19.559Z,30.97
2022-10-16T20:26:48.360Z,27.10
2022-10-16T20:29:17.075Z,28.30
2022-10-16T20:31:47.166Z,29.07
2022-10-16T20:34:15.938Z,28.10
2022-10-16T20:36:45.439Z,30.03
2022-10-16T20:39:14.786Z,32.27
2022-10-16T20:41:46.206Z,23.60
2022-10-16T20:44:14.855Z,32.90
2022-10-16T20:46:47.600Z,33.20
2022-10-16T20:49:28.797Z,23.47
2022-10-16T20:52:04.912Z,32.73
2022-10-16T20:54:33.841Z,28.37
2022-10-16T20:57:02.628Z,29.17
2022-10-16T20:59:31.330Z,19.37
2022-10-16T21:02:01.601Z,31.70
2022-10-16T21:04:30.347Z,29.47
2022-10-16T21:06:58.986Z,29.37
2022-10-16T21:09:27.724Z,26.60
2022-10-16T21:11:56.569Z,27.33
2022-10-16T21:14:25.285Z,21.83
2022-10-16T21:16:54.936Z,21.83
2022-10-16T21:19:25.220Z,21.77
2022-10-16T21:21:53.898Z,22.00
2022-10-16T21:24:22.622Z,27.77
2022-10-16T21:26:51.628Z,29.53
2022-10-16T21:29:20.676Z,23.80
2022-10-16T21:31:49.317Z,25.30
2022-10-16T21:34:17.987Z,27.47
2022-10-16T21:36:47.963Z,26.17
2022-10-16T21:39:19.111Z,24.23
2022-10-16T21:41:50.331Z,20.43
2022-10-16T21:44:20.911Z,22.53
2022-10-16T21:46:51.675Z,20.90
2022-10-16T21:49:20.989Z,23.57
2022-10-16T21:51:52.122Z,20.03
2022-10-16T21:54:22.825Z,21.90
2022-10-16T21:56:52.402Z,23.50
2022-10-16T21:59:21.623Z,26.87
2022-10-16T22:01:50.343Z,20.37
2022-10-16T22:04:18.999Z,22.93
2022-10-16T22:06:47.924Z,24.80
2022-10-16T22:09:18.041Z,21.97
2022-10-16T22:11:46.895Z,25.17
2022-10-16T22:14:17.271Z,20.13
2022-10-16T22:16:46.907Z,23.77
2022-10-16T22:19:17.385Z,20.10
2022-10-16T22:21:47.490Z,20.63
2022-10-16T22:24:19.843Z,21.37
2022-10-16T22:26:49.356Z,23.33
2022-10-16T22:29:18.107Z,19.30
2022-10-16T22:31:46.772Z,19.37
2022-10-16T22:34:15.986Z,21.13
2022-10-16T22:36:44.619Z,20.07
2022-10-16T22:39:18.820Z,26.97
2022-10-16T22:41:47.464Z,17.60
2022-10-16T22:44:16.149Z,27.43
2022-10-16T22:46:44.734Z,21.07
2022-10-16T22:49:13.993Z,19.97
2022-10-16T22:51:43.476Z,21.97
2022-10-16T22:54:12.400Z,22.87
2022-10-16T22:56:43.367Z,19.07
2022-10-16T22:59:15.358Z,23.67
2022-10-16T23:01:44.298Z,17.73
2022-10-16T23:04:13.384Z,21.00
2022-10-16T23:06:42.132Z,24.07
2022-10-16T23:09:12.047Z,24.27
2022-10-16T23:11:42.341Z,20.17
2022-10-16T23:14:11.864Z,18.07
2022-10-16T23:16:43.128Z,21.50
2022-10-16T23:19:12.354Z,19.37
2022-10-16T23:21:41.268Z,17.77
2022-10-16T23:24:09.954Z,19.13
2022-10-16T23:26:38.648Z,20.23
2022-10-16T23:29:08.695Z,19.47
2022-10-16T23:31:37.373Z,21.37
2022-10-16T23:34:06.081Z,23.77
2022-10-16T23:36:34.664Z,19.27
2022-10-16T23:39:03.505Z,21.60
2022-10-16T23:41:32.131Z,23.23
2022-10-16T23:44:00.857Z,18.67
2022-10-16T23:46:30.892Z,19.20
2022-10-16T23:48:59.879Z,24.00
2022-10-16T23:51:31.350Z,24.83
2022-10-16T23:54:00.137Z,24.60
2022-10-16T23:56:28.760Z,20.60
2022-10-16T23:58:57.628Z,22.60
